sensor_id;sensor_type;location;lat;lon;timestamp;temperature;humidity
7936;DHT22;4013;49.744;8.118;2023-07-20T00:00:19;19.50;99.90
7936;DHT22;4013;49.744;8.118;2023-07-20T00:02:50;19.50;99.90
7936;DHT22;4013;49.744;8.118;2023-07-20T00:05:17;19.40;99.90
7936;DHT22;4013;49.744;8.118;2023-07-20T00:07:48;19.40;99.90
7936;DHT22;4013;49.744;8.118;2023-07-20T00:10:17;19.30;99.90
7936;DHT22;4013;49.744;8.118;2023-07-20T00:12:44;19.30;99.90
7936;DHT22;4013;49.744;8.118;2023-07-20T00:15:13;19.30;99.90
7936;DHT22;4013;49.744;8.118;2023-07-20T00:17:40;19.20;99.90
7936;DHT22;4013;49.744;8.118;2023-07-20T00:20:08;19.20;99.90
7936;DHT22;4013;49.744;8.118;2023-07-20T00:22:35;19.20;99.90
7936;DHT22;4013;49.744;8.118;2023-07-20T00:25:03;19.10;99.90
7936;DHT22;4013;49.744;8.118;2023-07-20T00:27:30;19.10;99.90
7936;DHT22;4013;49.744;8.118;2023-07-20T00:29:57;19.10;99.90
7936;DHT22;4013;49.744;8.118;2023-07-20T00:32:24;19.10;99.90
7936;DHT22;4013;49.744;8.118;2023-07-20T00:34:51;19.10;99.90
7936;DHT22;4013;49.744;8.118;2023-07-20T00:37:17;19.00;99.90
7936;DHT22;4013;49.744;8.118;2023-07-20T00:39:44;19.00;99.90
7936;DHT22;4013;49.744;8.118;2023-07-20T00:42:13;19.00;99.90
7936;DHT22;4013;49.744;8.118;2023-07-20T00:44:40;19.00;99.90
7936;DHT22;4013;49.744;8.118;2023-07-20T00:47:07;19.00;99.90
7936;DHT22;4013;49.744;8.118;2023-07-20T00:49:34;18.80;99.90
7936;DHT22;4013;49.744;8.118;2023-07-20T00:52:01;18.80;99.90
7936;DHT22;4013;49.744;8.118;2023-07-20T00:54:30;18.80;99.90
7936;DHT22;4013;49.744;8.118;2023-07-20T00:56:57;18.80;99.90
7936;DHT22;4013;49.744;8.118;2023-07-20T00:59:27;18.70;99.90
7936;DHT22;4013;49.744;8.118;2023-07-20T01:01:54;18.70;99.90
7936;DHT22;4013;49.744;8.118;2023-07-20T01:04:21;18.70;99.90
7936;DHT22;4013;49.744;8.118;2023-07-20T01:06:55;18.50;99.90
7936;DHT22;4013;49.744;8.118;2023-07-20T01:09:28;18.50;99.90
7936;DHT22;4013;49.744;8.118;2023-07-20T01:12:01;18.30;99.90
7936;DHT22;4013;49.744;8.118;2023-07-20T01:14:31;18.40;99.90
7936;DHT22;4013;49.744;8.118;2023-07-20T01:16:58;18.40;99.90
7936;DHT22;4013;49.744;8.118;2023-07-20T01:19:25;18.30;99.90
7936;DHT22;4013;49.744;8.118;2023-07-20T01:21:59;18.20;99.90
7936;DHT22;4013;49.744;8.118;2023-07-20T01:24:58;18.10;99.90
7936;DHT22;4013;49.744;8.118;2023-07-20T01:28:04;18.00;99.90
7936;DHT22;4013;49.744;8.118;2023-07-20T01:30:56;18.00;99.90
7936;DHT22;4013;49.744;8.118;2023-07-20T01:33:27;18.00;99.90
7936;DHT22;4013;49.744;8.118;2023-07-20T01:35:57;17.90;99.90
7936;DHT22;4013;49.744;8.118;2023-07-20T01:38:25;17.80;99.90
7936;DHT22;4013;49.744;8.118;2023-07-20T01:40:53;17.70;99.90
7936;DHT22;4013;49.744;8.118;2023-07-20T01:43:19;17.60;99.90
7936;DHT22;4013;49.744;8.118;2023-07-20T01:45:46;17.60;99.90
7936;DHT22;4013;49.744;8.118;2023-07-20T01:48:13;17.60;99.90
7936;DHT22;4013;49.744;8.118;2023-07-20T01:50:42;17.50;99.90
7936;DHT22;4013;49.744;8.118;2023-07-20T01:53:09;17.50;99.90
7936;DHT22;4013;49.744;8.118;2023-07-20T01:55:37;17.40;99.90
7936;DHT22;4013;49.744;8.118;2023-07-20T01:58:03;17.30;99.90
7936;DHT22;4013;49.744;8.118;2023-07-20T02:00:31;17.40;99.90
7936;DHT22;4013;49.744;8.118;2023-07-20T02:02:58;17.40;99.90
7936;DHT22;4013;49.744;8.118;2023-07-20T02:05:25;17.50;99.90
7936;DHT22;4013;49.744;8.118;2023-07-20T02:07:53;17.40;99.90
7936;DHT22;4013;49.744;8.118;2023-07-20T02:10:20;17.40;99.90
7936;DHT22;4013;49.744;8.118;2023-07-20T02:12:47;17.30;99.90
7936;DHT22;4013;49.744;8.118;2023-07-20T02:15:14;17.20;99.90
7936;DHT22;4013;49.744;8.118;2023-07-20T02:17:42;17.20;99.90
7936;DHT22;4013;49.744;8.118;2023-07-20T02:20:10;17.20;99.90
7936;DHT22;4013;49.744;8.118;2023-07-20T02:22:37;17.20;99.90
7936;DHT22;4013;49.744;8.118;2023-07-20T02:25:06;17.10;99.90
7936;DHT22;4013;49.744;8.118;2023-07-20T02:27:34;17.10;99.90
7936;DHT22;4013;49.744;8.118;2023-07-20T02:30:01;17.00;99.90
7936;DHT22;4013;49.744;8.118;2023-07-20T02:32:29;17.00;99.90
7936;DHT22;4013;49.744;8.118;2023-07-20T02:34:57;17.00;99.90
7936;DHT22;4013;49.744;8.118;2023-07-20T02:37:24;17.00;99.90
7936;DHT22;4013;49.744;8.118;2023-07-20T02:39:51;17.00;99.90
7936;DHT22;4013;49.744;8.118;2023-07-20T02:42:19;17.00;99.90
7936;DHT22;4013;49.744;8.118;2023-07-20T02:44:48;17.10;99.90
7936;DHT22;4013;49.744;8.118;2023-07-20T02:47:15;17.00;99.90
7936;DHT22;4013;49.744;8.118;2023-07-20T02:49:42;16.90;99.90
7936;DHT22;4013;49.744;8.118;2023-07-20T02:52:09;16.80;99.90
7936;DHT22;4013;49.744;8.118;2023-07-20T02:54:36;16.80;99.90
7936;DHT22;4013;49.744;8.118;2023-07-20T02:57:03;16.70;99.90
7936;DHT22;4013;49.744;8.118;2023-07-20T02:59:32;16.70;99.90
7936;DHT22;4013;49.744;8.118;2023-07-20T03:01:59;16.70;99.90
7936;DHT22;4013;49.744;8.118;2023-07-20T03:04:26;16.70;99.90
7936;DHT22;4013;49.744;8.118;2023-07-20T03:06:53;16.70;99.90
7936;DHT22;4013;49.744;8.118;2023-07-20T03:09:20;16.80;99.90
7936;DHT22;4013;49.744;8.118;2023-07-20T03:11:49;16.80;99.90
7936;DHT22;4013;49.744;8.118;2023-07-20T03:14:16;16.80;99.90
7936;DHT22;4013;49.744;8.118;2023-07-20T03:16:44;16.90;99.90
7936;DHT22;4013;49.744;8.118;2023-07-20T03:19:11;16.80;99.90
7936;DHT22;4013;49.744;8.118;2023-07-20T03:21:38;16.90;99.90
7936;DHT22;4013;49.744;8.118;2023-07-20T03:24:06;16.90;99.90
7936;DHT22;4013;49.744;8.118;2023-07-20T03:26:34;16.80;99.90
7936;DHT22;4013;49.744;8.118;2023-07-20T03:29:01;16.80;99.90
7936;DHT22;4013;49.744;8.118;2023-07-20T03:31:28;16.90;99.90
7936;DHT22;4013;49.744;8.118;2023-07-20T03:33:56;16.90;99.90
7936;DHT22;4013;49.744;8.118;2023-07-20T03:36:23;16.90;99.90
7936;DHT22;4013;49.744;8.118;2023-07-20T03:38:50;16.80;99.90
7936;DHT22;4013;49.744;8.118;2023-07-20T03:41:17;16.90;99.90
7936;DHT22;4013;49.744;8.118;2023-07-20T03:43:45;16.80;99.90
7936;DHT22;4013;49.744;8.118;2023-07-20T03:46:12;16.80;99.90
7936;DHT22;4013;49.744;8.118;2023-07-20T03:48:39;16.80;99.90
7936;DHT22;4013;49.744;8.118;2023-07-20T03:51:08;16.80;99.90
7936;DHT22;4013;49.744;8.118;2023-07-20T03:53:35;16.80;99.90
7936;DHT22;4013;49.744;8.118;2023-07-20T03:56:02;16.80;99.90
7936;DHT22;4013;49.744;8.118;2023-07-20T03:58:29;16.80;99.90
7936;DHT22;4013;49.744;8.118;2023-07-20T04:00:57;16.80;99.90
7936;DHT22;4013;49.744;8.118;2023-07-20T04:03:24;16.80;99.90
7936;DHT22;4013;49.744;8.118;2023-07-20T04:05:53;16.80;99.90
7936;DHT22;4013;49.744;8.118;2023-07-20T04:08:22;16.80;99.90
7936;DHT22;4013;49.744;8.118;2023-07-20T04:10:49;16.80;99.90
7936;DHT22;4013;49.744;8.118;2023-07-20T04:13:17;16.80;99.90
7936;DHT22;4013;49.744;8.118;2023-07-20T04:15:44;16.90;99.90
7936;DHT22;4013;49.744;8.118;2023-07-20T04:18:11;16.90;99.90
7936;DHT22;4013;49.744;8.118;2023-07-20T04:20:38;16.90;99.90
7936;DHT22;4013;49.744;8.118;2023-07-20T04:23:06;16.90;99.90
7936;DHT22;4013;49.744;8.118;2023-07-20T04:25:34;16.90;99.90
7936;DHT22;4013;49.744;8.118;2023-07-20T04:28:05;17.00;99.90
7936;DHT22;4013;49.744;8.118;2023-07-20T04:30:34;17.00;99.90
7936;DHT22;4013;49.744;8.118;2023-07-20T04:33:02;17.10;99.90
7936;DHT22;4013;49.744;8.118;2023-07-20T04:35:49;17.20;99.90
7936;DHT22;4013;49.744;8.118;2023-07-20T04:38:17;17.40;99.90
7936;DHT22;4013;49.744;8.118;2023-07-20T04:40:46;17.40;99.90
7936;DHT22;4013;49.744;8.118;2023-07-20T04:43:13;17.50;99.90
7936;DHT22;4013;49.744;8.118;2023-07-20T04:45:41;17.60;99.90
7936;DHT22;4013;49.744;8.118;2023-07-20T04:48:10;17.70;99.90
7936;DHT22;4013;49.744;8.118;2023-07-20T04:50:38;17.80;99.90
7936;DHT22;4013;49.744;8.118;2023-07-20T04:53:05;17.90;99.90
7936;DHT22;4013;49.744;8.118;2023-07-20T04:55:32;17.90;99.90
7936;DHT22;4013;49.744;8.118;2023-07-20T04:58:01;17.90;99.90
7936;DHT22;4013;49.744;8.118;2023-07-20T05:00:29;18.00;99.90
7936;DHT22;4013;49.744;8.118;2023-07-20T05:02:56;18.00;99.90
7936;DHT22;4013;49.744;8.118;2023-07-20T05:05:23;18.00;99.90
7936;DHT22;4013;49.744;8.118;2023-07-20T05:07:50;18.10;99.90
7936;DHT22;4013;49.744;8.118;2023-07-20T05:10:17;18.20;99.90
7936;DHT22;4013;49.744;8.118;2023-07-20T05:12:44;18.30;99.90
7936;DHT22;4013;49.744;8.118;2023-07-20T05:15:13;18.30;99.90
7936;DHT22;4013;49.744;8.118;2023-07-20T05:17:40;18.40;99.90
7936;DHT22;4013;49.744;8.118;2023-07-20T05:20:07;18.50;99.90
7936;DHT22;4013;49.744;8.118;2023-07-20T05:22:38;18.50;99.90
7936;DHT22;4013;49.744;8.118;2023-07-20T05:25:07;18.60;99.90
7936;DHT22;4013;49.744;8.118;2023-07-20T05:27:35;18.50;99.90
7936;DHT22;4013;49.744;8.118;2023-07-20T05:30:03;18.60;99.90
7936;DHT22;4013;49.744;8.118;2023-07-20T05:32:31;18.50;99.90
7936;DHT22;4013;49.744;8.118;2023-07-20T05:34:59;18.50;99.90
7936;DHT22;4013;49.744;8.118;2023-07-20T05:37:26;18.40;99.90
7936;DHT22;4013;49.744;8.118;2023-07-20T05:39:52;18.40;99.90
7936;DHT22;4013;49.744;8.118;2023-07-20T05:42:19;18.50;99.90
7936;DHT22;4013;49.744;8.118;2023-07-20T05:44:46;18.50;99.90
7936;DHT22;4013;49.744;8.118;2023-07-20T05:47:15;18.40;99.90
7936;DHT22;4013;49.744;8.118;2023-07-20T05:49:43;18.50;99.90
7936;DHT22;4013;49.744;8.118;2023-07-20T05:52:10;18.50;99.90
7936;DHT22;4013;49.744;8.118;2023-07-20T05:54:37;18.50;99.90
7936;DHT22;4013;49.744;8.118;2023-07-20T05:57:05;18.70;99.90
7936;DHT22;4013;49.744;8.118;2023-07-20T05:59:32;18.80;99.90
7936;DHT22;4013;49.744;8.118;2023-07-20T06:01:59;18.90;99.90
7936;DHT22;4013;49.744;8.118;2023-07-20T06:04:26;19.00;99.90
7936;DHT22;4013;49.744;8.118;2023-07-20T06:06:54;19.10;99.90
7936;DHT22;4013;49.744;8.118;2023-07-20T06:09:21;19.30;99.90
7936;DHT22;4013;49.744;8.118;2023-07-20T06:11:48;19.30;99.90
7936;DHT22;4013;49.744;8.118;2023-07-20T06:14:15;19.40;99.90
7936;DHT22;4013;49.744;8.118;2023-07-20T06:16:42;19.50;99.90
7936;DHT22;4013;49.744;8.118;2023-07-20T06:19:09;19.50;99.90
7936;DHT22;4013;49.744;8.118;2023-07-20T06:21:36;19.60;99.90
7936;DHT22;4013;49.744;8.118;2023-07-20T06:24:05;19.70;99.90
7936;DHT22;4013;49.744;8.118;2023-07-20T06:26:32;19.70;99.90
7936;DHT22;4013;49.744;8.118;2023-07-20T06:29:04;19.80;99.90
7936;DHT22;4013;49.744;8.118;2023-07-20T06:31:31;19.90;99.90
7936;DHT22;4013;49.744;8.118;2023-07-20T06:33:59;20.00;99.90
7936;DHT22;4013;49.744;8.118;2023-07-20T06:36:26;20.10;99.90
7936;DHT22;4013;49.744;8.118;2023-07-20T06:38:53;20.00;99.90
7936;DHT22;4013;49.744;8.118;2023-07-20T06:41:22;20.10;99.90
7936;DHT22;4013;49.744;8.118;2023-07-20T06:43:49;20.20;99.90
7936;DHT22;4013;49.744;8.118;2023-07-20T06:46:18;20.30;99.90
7936;DHT22;4013;49.744;8.118;2023-07-20T06:48:45;20.30;99.90
7936;DHT22;4013;49.744;8.118;2023-07-20T06:51:12;20.40;99.90
7936;DHT22;4013;49.744;8.118;2023-07-20T06:53:39;20.30;99.90
7936;DHT22;4013;49.744;8.118;2023-07-20T06:56:06;20.20;99.90
7936;DHT22;4013;49.744;8.118;2023-07-20T06:58:34;20.40;99.90
7936;DHT22;4013;49.744;8.118;2023-07-20T07:01:04;20.50;99.90
7936;DHT22;4013;49.744;8.118;2023-07-20T07:03:32;20.70;99.90
7936;DHT22;4013;49.744;8.118;2023-07-20T07:05:59;20.60;99.90
7936;DHT22;4013;49.744;8.118;2023-07-20T07:08:26;20.60;99.90
7936;DHT22;4013;49.744;8.118;2023-07-20T07:10:53;20.50;99.90
7936;DHT22;4013;49.744;8.118;2023-07-20T07:13:20;20.60;99.90
7936;DHT22;4013;49.744;8.118;2023-07-20T07:15:48;20.60;99.90
7936;DHT22;4013;49.744;8.118;2023-07-20T07:18:15;20.60;99.90
7936;DHT22;4013;49.744;8.118;2023-07-20T07:20:50;20.70;99.90
7936;DHT22;4013;49.744;8.118;2023-07-20T07:23:17;20.60;99.90
7936;DHT22;4013;49.744;8.118;2023-07-20T07:25:45;20.60;99.90
7936;DHT22;4013;49.744;8.118;2023-07-20T07:28:12;20.70;99.90
7936;DHT22;4013;49.744;8.118;2023-07-20T07:30:39;20.90;99.90
7936;DHT22;4013;49.744;8.118;2023-07-20T07:33:08;20.90;99.90
7936;DHT22;4013;49.744;8.118;2023-07-20T07:35:35;21.00;99.90
7936;DHT22;4013;49.744;8.118;2023-07-20T07:38:02;21.10;99.90
7936;DHT22;4013;49.744;8.118;2023-07-20T07:40:30;21.00;99.90
7936;DHT22;4013;49.744;8.118;2023-07-20T07:42:57;20.90;99.90
7936;DHT22;4013;49.744;8.118;2023-07-20T07:45:24;21.00;99.90
7936;DHT22;4013;49.744;8.118;2023-07-20T07:47:51;21.10;99.90
7936;DHT22;4013;49.744;8.118;2023-07-20T07:50:20;21.30;99.90
7936;DHT22;4013;49.744;8.118;2023-07-20T07:52:47;21.20;99.90
7936;DHT22;4013;49.744;8.118;2023-07-20T07:55:13;21.40;99.90
7936;DHT22;4013;49.744;8.118;2023-07-20T07:57:42;21.40;99.90
7936;DHT22;4013;49.744;8.118;2023-07-20T08:00:10;21.60;99.90
7936;DHT22;4013;49.744;8.118;2023-07-20T08:02:40;21.60;99.90
7936;DHT22;4013;49.744;8.118;2023-07-20T08:05:07;21.60;99.90
7936;DHT22;4013;49.744;8.118;2023-07-20T08:07:36;21.60;99.90
7936;DHT22;4013;49.744;8.118;2023-07-20T08:10:03;21.80;99.90
7936;DHT22;4013;49.744;8.118;2023-07-20T08:12:30;21.80;99.90
7936;DHT22;4013;49.744;8.118;2023-07-20T08:14:57;21.80;99.90
7936;DHT22;4013;49.744;8.118;2023-07-20T08:17:25;21.80;99.90
7936;DHT22;4013;49.744;8.118;2023-07-20T08:19:51;21.80;99.90
7936;DHT22;4013;49.744;8.118;2023-07-20T08:22:18;21.90;99.90
7936;DHT22;4013;49.744;8.118;2023-07-20T08:24:47;21.60;99.90
7936;DHT22;4013;49.744;8.118;2023-07-20T08:27:14;21.40;99.90
7936;DHT22;4013;49.744;8.118;2023-07-20T08:29:41;21.40;99.90
7936;DHT22;4013;49.744;8.118;2023-07-20T08:32:08;21.50;99.90
7936;DHT22;4013;49.744;8.118;2023-07-20T08:34:35;21.50;99.90
7936;DHT22;4013;49.744;8.118;2023-07-20T08:37:02;21.50;99.90
7936;DHT22;4013;49.744;8.118;2023-07-20T08:39:29;21.40;99.90
7936;DHT22;4013;49.744;8.118;2023-07-20T08:41:59;21.50;99.90
7936;DHT22;4013;49.744;8.118;2023-07-20T08:44:30;21.80;99.90
7936;DHT22;4013;49.744;8.118;2023-07-20T08:47:00;21.80;99.90
7936;DHT22;4013;49.744;8.118;2023-07-20T08:49:28;21.60;99.90
7936;DHT22;4013;49.744;8.118;2023-07-20T08:51:56;21.50;99.90
7936;DHT22;4013;49.744;8.118;2023-07-20T08:54:25;21.50;99.90
7936;DHT22;4013;49.744;8.118;2023-07-20T08:56:58;21.40;99.90
7936;DHT22;4013;49.744;8.118;2023-07-20T08:59:26;21.50;99.90
7936;DHT22;4013;49.744;8.118;2023-07-20T09:01:56;21.60;99.90
7936;DHT22;4013;49.744;8.118;2023-07-20T09:04:23;21.80;99.90
7936;DHT22;4013;49.744;8.118;2023-07-20T09:06:51;21.80;99.90
7936;DHT22;4013;49.744;8.118;2023-07-20T09:09:18;21.70;99.90
7936;DHT22;4013;49.744;8.118;2023-07-20T09:11:48;21.60;99.90
7936;DHT22;4013;49.744;8.118;2023-07-20T09:14:17;21.60;99.90
7936;DHT22;4013;49.744;8.118;2023-07-20T09:16:47;21.50;99.90
7936;DHT22;4013;49.744;8.118;2023-07-20T09:19:15;21.40;99.90
7936;DHT22;4013;49.744;8.118;2023-07-20T09:21:45;21.30;99.90
7936;DHT22;4013;49.744;8.118;2023-07-20T09:24:13;21.20;99.90
7936;DHT22;4013;49.744;8.118;2023-07-20T09:26:41;21.20;99.90
7936;DHT22;4013;49.744;8.118;2023-07-20T09:29:09;21.30;99.90
7936;DHT22;4013;49.744;8.118;2023-07-20T09:31:38;21.60;99.90
7936;DHT22;4013;49.744;8.118;2023-07-20T09:34:05;21.90;99.90
7936;DHT22;4013;49.744;8.118;2023-07-20T09:36:34;22.10;99.90
7936;DHT22;4013;49.744;8.118;2023-07-20T09:39:03;22.20;99.90
7936;DHT22;4013;49.744;8.118;2023-07-20T09:41:30;22.00;99.90
7936;DHT22;4013;49.744;8.118;2023-07-20T09:44:06;21.80;99.90
7936;DHT22;4013;49.744;8.118;2023-07-20T09:46:43;21.70;99.90
7936;DHT22;4013;49.744;8.118;2023-07-20T09:49:10;21.70;99.90
7936;DHT22;4013;49.744;8.118;2023-07-20T09:51:37;21.90;99.90
7936;DHT22;4013;49.744;8.118;2023-07-20T09:54:05;22.10;99.90
7936;DHT22;4013;49.744;8.118;2023-07-20T09:56:33;22.10;99.90
7936;DHT22;4013;49.744;8.118;2023-07-20T09:59:00;22.20;99.90
7936;DHT22;4013;49.744;8.118;2023-07-20T10:01:29;22.50;99.90
7936;DHT22;4013;49.744;8.118;2023-07-20T10:03:59;22.60;99.90
7936;DHT22;4013;49.744;8.118;2023-07-20T10:06:32;22.80;99.90
7936;DHT22;4013;49.744;8.118;2023-07-20T10:09:02;22.80;99.90
7936;DHT22;4013;49.744;8.118;2023-07-20T10:11:31;23.00;99.90
7936;DHT22;4013;49.744;8.118;2023-07-20T10:13:59;23.10;99.90
7936;DHT22;4013;49.744;8.118;2023-07-20T10:16:31;22.90;99.90
7936;DHT22;4013;49.744;8.118;2023-07-20T10:19:05;22.70;99.90
7936;DHT22;4013;49.744;8.118;2023-07-20T10:21:34;22.60;99.90
7936;DHT22;4013;49.744;8.118;2023-07-20T10:24:03;22.60;99.90
7936;DHT22;4013;49.744;8.118;2023-07-20T10:26:30;22.70;99.90
7936;DHT22;4013;49.744;8.118;2023-07-20T10:28:58;22.70;99.90
7936;DHT22;4013;49.744;8.118;2023-07-20T10:31:26;22.70;99.90
7936;DHT22;4013;49.744;8.118;2023-07-20T10:33:54;22.70;99.90
7936;DHT22;4013;49.744;8.118;2023-07-20T10:36:26;22.70;99.90
7936;DHT22;4013;49.744;8.118;2023-07-20T10:38:54;22.60;99.90
7936;DHT22;4013;49.744;8.118;2023-07-20T10:41:27;22.30;99.90
7936;DHT22;4013;49.744;8.118;2023-07-20T10:43:58;22.30;99.90
7936;DHT22;4013;49.744;8.118;2023-07-20T10:46:42;22.30;99.90
7936;DHT22;4013;49.744;8.118;2023-07-20T10:49:10;22.30;99.90
7936;DHT22;4013;49.744;8.118;2023-07-20T10:51:42;22.40;99.90
7936;DHT22;4013;49.744;8.118;2023-07-20T10:57:29;22.40;99.90
7936;DHT22;4013;49.744;8.118;2023-07-20T11:00:18;22.60;99.90
7936;DHT22;4013;49.744;8.118;2023-07-20T11:02:49;22.60;99.90
7936;DHT22;4013;49.744;8.118;2023-07-20T11:05:35;22.90;99.90
7936;DHT22;4013;49.744;8.118;2023-07-20T11:08:10;23.20;99.90
7936;DHT22;4013;49.744;8.118;2023-07-20T11:10:37;23.50;99.90
7936;DHT22;4013;49.744;8.118;2023-07-20T11:13:20;23.70;99.90
7936;DHT22;4013;49.744;8.118;2023-07-20T11:16:01;23.80;96.00
7936;DHT22;4013;49.744;8.118;2023-07-20T11:18:30;23.70;95.20
7936;DHT22;4013;49.744;8.118;2023-07-20T11:20:58;23.40;97.80
7936;DHT22;4013;49.744;8.118;2023-07-20T11:23:26;23.40;98.00
7936;DHT22;4013;49.744;8.118;2023-07-20T11:25:54;23.40;97.40
7936;DHT22;4013;49.744;8.118;2023-07-20T11:28:21;23.40;99.90
7936;DHT22;4013;49.744;8.118;2023-07-20T11:30:52;23.30;98.30
7936;DHT22;4013;49.744;8.118;2023-07-20T11:33:20;23.30;99.20
7936;DHT22;4013;49.744;8.118;2023-07-20T11:35:49;23.20;99.50
7936;DHT22;4013;49.744;8.118;2023-07-20T11:38:16;23.10;99.90
7936;DHT22;4013;49.744;8.118;2023-07-20T11:40:45;23.20;99.90
7936;DHT22;4013;49.744;8.118;2023-07-20T11:43:13;23.20;99.90
7936;DHT22;4013;49.744;8.118;2023-07-20T11:45:40;23.20;99.20
7936;DHT22;4013;49.744;8.118;2023-07-20T11:48:14;23.20;99.10
7936;DHT22;4013;49.744;8.118;2023-07-20T11:50:41;23.00;99.90
7936;DHT22;4013;49.744;8.118;2023-07-20T11:53:08;23.00;99.90
7936;DHT22;4013;49.744;8.118;2023-07-20T11:55:36;23.00;99.90
7936;DHT22;4013;49.744;8.118;2023-07-20T11:58:06;23.00;99.00
7936;DHT22;4013;49.744;8.118;2023-07-20T12:00:34;22.90;99.30
7936;DHT22;4013;49.744;8.118;2023-07-20T12:03:01;23.00;99.90
7936;DHT22;4013;49.744;8.118;2023-07-20T12:05:32;22.90;99.90
7936;DHT22;4013;49.744;8.118;2023-07-20T12:07:59;22.80;99.90
7936;DHT22;4013;49.744;8.118;2023-07-20T12:10:28;22.80;99.90
7936;DHT22;4013;49.744;8.118;2023-07-20T12:13:01;22.80;99.90
7936;DHT22;4013;49.744;8.118;2023-07-20T12:15:29;22.90;99.90
7936;DHT22;4013;49.744;8.118;2023-07-20T12:17:58;23.00;99.90
7936;DHT22;4013;49.744;8.118;2023-07-20T12:20:27;23.10;99.90
7936;DHT22;4013;49.744;8.118;2023-07-20T12:22:57;23.10;99.90
7936;DHT22;4013;49.744;8.118;2023-07-20T12:25:33;23.00;99.90
7936;DHT22;4013;49.744;8.118;2023-07-20T12:28:01;23.10;99.90
7936;DHT22;4013;49.744;8.118;2023-07-20T12:30:30;23.10;99.90
7936;DHT22;4013;49.744;8.118;2023-07-20T12:32:57;23.10;99.50
7936;DHT22;4013;49.744;8.118;2023-07-20T12:35:24;23.00;99.40
7936;DHT22;4013;49.744;8.118;2023-07-20T12:37:54;22.90;99.90
7936;DHT22;4013;49.744;8.118;2023-07-20T12:40:21;22.90;99.90
7936;DHT22;4013;49.744;8.118;2023-07-20T12:42:48;22.90;99.90
7936;DHT22;4013;49.744;8.118;2023-07-20T12:45:15;22.90;99.90
7936;DHT22;4013;49.744;8.118;2023-07-20T12:47:43;23.10;99.90
7936;DHT22;4013;49.744;8.118;2023-07-20T12:50:10;23.30;99.80
7936;DHT22;4013;49.744;8.118;2023-07-20T12:52:39;23.40;99.90
7936;DHT22;4013;49.744;8.118;2023-07-20T12:55:08;23.50;99.90
7936;DHT22;4013;49.744;8.118;2023-07-20T12:57:35;23.60;99.10
7936;DHT22;4013;49.744;8.118;2023-07-20T13:00:03;23.70;98.30
7936;DHT22;4013;49.744;8.118;2023-07-20T13:02:30;23.90;99.10
7936;DHT22;4013;49.744;8.118;2023-07-20T13:04:59;24.00;96.50
7936;DHT22;4013;49.744;8.118;2023-07-20T13:07:33;23.90;96.40
7936;DHT22;4013;49.744;8.118;2023-07-20T13:10:01;23.70;96.70
7936;DHT22;4013;49.744;8.118;2023-07-20T13:12:30;23.70;97.20
7936;DHT22;4013;49.744;8.118;2023-07-20T13:14:57;23.80;98.10
7936;DHT22;4013;49.744;8.118;2023-07-20T13:17:26;24.00;98.50
7936;DHT22;4013;49.744;8.118;2023-07-20T13:19:53;24.10;95.80
7936;DHT22;4013;49.744;8.118;2023-07-20T13:22:22;24.00;94.60
7936;DHT22;4013;49.744;8.118;2023-07-20T13:24:49;23.90;93.30
7936;DHT22;4013;49.744;8.118;2023-07-20T13:27:17;24.10;93.20
7936;DHT22;4013;49.744;8.118;2023-07-20T13:29:44;24.40;92.10
7936;DHT22;4013;49.744;8.118;2023-07-20T13:32:13;24.40;91.10
7936;DHT22;4013;49.744;8.118;2023-07-20T13:34:40;24.30;91.30
7936;DHT22;4013;49.744;8.118;2023-07-20T13:37:07;24.30;90.60
7936;DHT22;4013;49.744;8.118;2023-07-20T13:39:36;24.30;91.00
7936;DHT22;4013;49.744;8.118;2023-07-20T13:42:03;24.00;90.80
7936;DHT22;4013;49.744;8.118;2023-07-20T13:44:31;24.00;90.40
7936;DHT22;4013;49.744;8.118;2023-07-20T13:46:58;24.00;89.00
7936;DHT22;4013;49.744;8.118;2023-07-20T13:49:25;24.10;90.00
7936;DHT22;4013;49.744;8.118;2023-07-20T13:51:52;24.10;88.10
7936;DHT22;4013;49.744;8.118;2023-07-20T13:54:19;24.10;88.00
7936;DHT22;4013;49.744;8.118;2023-07-20T13:56:48;24.10;88.60
7936;DHT22;4013;49.744;8.118;2023-07-20T13:59:14;24.40;89.40
7936;DHT22;4013;49.744;8.118;2023-07-20T14:01:42;24.60;88.60
7936;DHT22;4013;49.744;8.118;2023-07-20T14:04:08;24.70;88.00
7936;DHT22;4013;49.744;8.118;2023-07-20T14:06:36;24.80;87.20
7936;DHT22;4013;49.744;8.118;2023-07-20T14:09:04;24.90;83.50
7936;DHT22;4013;49.744;8.118;2023-07-20T14:11:31;24.70;86.90
7936;DHT22;4013;49.744;8.118;2023-07-20T14:13:59;24.70;85.60
7936;DHT22;4013;49.744;8.118;2023-07-20T14:16:26;24.70;87.10
7936;DHT22;4013;49.744;8.118;2023-07-20T14:18:53;24.90;83.70
7936;DHT22;4013;49.744;8.118;2023-07-20T14:21:21;24.80;84.10
7936;DHT22;4013;49.744;8.118;2023-07-20T14:23:50;24.90;82.70
7936;DHT22;4013;49.744;8.118;2023-07-20T14:26:17;25.00;82.90
7936;DHT22;4013;49.744;8.118;2023-07-20T14:28:44;25.10;82.60
7936;DHT22;4013;49.744;8.118;2023-07-20T14:31:13;25.10;81.20
7936;DHT22;4013;49.744;8.118;2023-07-20T14:33:40;25.40;80.50
7936;DHT22;4013;49.744;8.118;2023-07-20T14:36:07;25.70;78.30
7936;DHT22;4013;49.744;8.118;2023-07-20T14:38:34;25.80;76.50
7936;DHT22;4013;49.744;8.118;2023-07-20T14:41:02;25.80;77.00
7936;DHT22;4013;49.744;8.118;2023-07-20T14:43:29;25.70;79.00
7936;DHT22;4013;49.744;8.118;2023-07-20T14:45:56;25.70;78.40
7936;DHT22;4013;49.744;8.118;2023-07-20T14:48:24;25.70;77.00
7936;DHT22;4013;49.744;8.118;2023-07-20T14:50:51;25.30;77.00
7936;DHT22;4013;49.744;8.118;2023-07-20T14:53:18;25.40;76.40
7936;DHT22;4013;49.744;8.118;2023-07-20T14:55:45;25.50;76.20
7936;DHT22;4013;49.744;8.118;2023-07-20T14:58:12;25.20;75.40
7936;DHT22;4013;49.744;8.118;2023-07-20T15:00:39;25.00;77.70
7936;DHT22;4013;49.744;8.118;2023-07-20T15:03:06;25.30;76.60
7936;DHT22;4013;49.744;8.118;2023-07-20T15:05:36;25.60;75.70
7936;DHT22;4013;49.744;8.118;2023-07-20T15:08:04;25.60;76.80
7936;DHT22;4013;49.744;8.118;2023-07-20T15:10:32;25.50;75.70
7936;DHT22;4013;49.744;8.118;2023-07-20T15:12:59;25.30;76.80
7936;DHT22;4013;49.744;8.118;2023-07-20T15:15:26;25.20;76.50
7936;DHT22;4013;49.744;8.118;2023-07-20T15:17:53;25.10;78.10
7936;DHT22;4013;49.744;8.118;2023-07-20T15:20:20;25.00;79.20
7936;DHT22;4013;49.744;8.118;2023-07-20T15:22:49;25.00;77.40
7936;DHT22;4013;49.744;8.118;2023-07-20T15:25:16;24.90;78.10
7936;DHT22;4013;49.744;8.118;2023-07-20T15:27:43;24.80;79.20
7936;DHT22;4013;49.744;8.118;2023-07-20T15:30:10;24.80;77.30
7936;DHT22;4013;49.744;8.118;2023-07-20T15:32:37;24.70;78.20
7936;DHT22;4013;49.744;8.118;2023-07-20T15:35:06;24.60;77.50
7936;DHT22;4013;49.744;8.118;2023-07-20T15:37:34;24.70;75.90
7936;DHT22;4013;49.744;8.118;2023-07-20T15:40:04;24.80;75.90
7936;DHT22;4013;49.744;8.118;2023-07-20T15:42:32;24.90;76.70
7936;DHT22;4013;49.744;8.118;2023-07-20T15:44:59;24.90;75.50
7936;DHT22;4013;49.744;8.118;2023-07-20T15:47:26;24.90;76.30
7936;DHT22;4013;49.744;8.118;2023-07-20T15:49:53;24.90;75.30
7936;DHT22;4013;49.744;8.118;2023-07-20T15:52:20;25.00;76.90
7936;DHT22;4013;49.744;8.118;2023-07-20T15:54:48;25.00;75.50
7936;DHT22;4013;49.744;8.118;2023-07-20T15:57:17;25.00;75.20
7936;DHT22;4013;49.744;8.118;2023-07-20T15:59:44;25.10;75.50
7936;DHT22;4013;49.744;8.118;2023-07-20T16:02:11;25.10;74.60
7936;DHT22;4013;49.744;8.118;2023-07-20T16:04:38;25.20;75.50
7936;DHT22;4013;49.744;8.118;2023-07-20T16:07:05;25.20;75.90
7936;DHT22;4013;49.744;8.118;2023-07-20T16:09:33;25.00;76.00
7936;DHT22;4013;49.744;8.118;2023-07-20T16:12:02;24.90;75.60